createdAt,value
2019-03-11T00:01:44.391Z,99.90
2019-03-11T00:04:19.475Z,99.90
2019-03-11T00:06:51.940Z,99.90
2019-03-11T00:09:24.917Z,99.90
2019-03-11T00:11:57.934Z,99.90
2019-03-11T00:14:31.110Z,99.90
2019-03-11T00:17:03.813Z,99.90
2019-03-11T00:19:37.449Z,99.90
2019-03-11T00:22:10.599Z,99.90
2019-03-11T00:24:43.655Z,99.90
2019-03-11T00:27:16.353Z,99.90
2019-03-11T00:29:49.851Z,99.90
2019-03-11T00:32:23.027Z,99.90
2019-03-11T00:34:55.899Z,99.90
2019-03-11T00:37:30.008Z,99.90
2019-03-11T00:40:05.129Z,99.90
2019-03-11T00:42:38.378Z,99.90
2019-03-11T00:45:12.681Z,99.90
2019-03-11T00:47:45.526Z,99.90
2019-03-11T00:50:20.126Z,99.90
2019-03-11T00:52:51.980Z,99.90
2019-03-11T00:55:24.849Z,99.90
2019-03-11T00:57:57.280Z,99.90
2019-03-11T01:00:31.947Z,99.90
2019-03-11T01:03:07.298Z,99.90
2019-03-11T01:05:39.167Z,99.90
2019-03-11T01:08:12.734Z,99.90
2019-03-11T01:10:46.858Z,99.90
2019-03-11T01:13:20.200Z,99.90
2019-03-11T01:15:52.626Z,99.90
2019-03-11T01:18:26.344Z,99.90
2019-03-11T01:20:59.970Z,99.90
2019-03-11T01:23:35.156Z,99.90
2019-03-11T01:26:08.203Z,99.90
2019-03-11T01:28:40.555Z,99.90
2019-03-11T01:31:14.791Z,99.90
2019-03-11T01:33:47.810Z,99.90
2019-03-11T01:36:24.047Z,99.90
2019-03-11T01:38:57.140Z,99.90
2019-03-11T01:41:29.650Z,99.90
2019-03-11T01:44:01.561Z,99.90
2019-03-11T01:46:34.710Z,99.90
2019-03-11T01:49:09.046Z,99.90
2019-03-11T01:51:42.182Z,99.90
2019-03-11T01:54:15.219Z,99.90
2019-03-11T01:56:48.819Z,99.90
2019-03-11T01:59:21.624Z,99.90
2019-03-11T02:01:54.869Z,99.90
2019-03-11T02:04:26.762Z,99.90
2019-03-11T02:06:59.682Z,99.90
2019-03-11T02:09:34.320Z,99.90
2019-03-11T02:12:07.884Z,99.90
2019-03-11T02:14:40.276Z,99.90
2019-03-11T02:17:12.229Z,99.90
2019-03-11T02:19:45.138Z,99.90
2019-03-11T02:22:18.323Z,99.90
2019-03-11T02:24:51.229Z,99.90
2019-03-11T02:27:25.754Z,99.90
2019-03-11T02:30:00.476Z,99.90
2019-03-11T02:32:34.980Z,99.90
2019-03-11T02:35:08.415Z,99.90
2019-03-11T02:37:42.597Z,99.90
2019-03-11T02:40:16.314Z,99.90
2019-03-11T02:42:49.383Z,99.90
2019-03-11T02:45:24.373Z,99.90
2019-03-11T02:47:59.053Z,99.90
2019-03-11T02:50:32.138Z,99.90
2019-03-11T02:53:07.290Z,99.90
2019-03-11T02:55:39.112Z,99.90
2019-03-11T02:58:12.039Z,99.90
2019-03-11T03:00:45.956Z,99.90
2019-03-11T03:03:41.761Z,99.90
2019-03-11T03:06:16.926Z,99.90
2019-03-11T03:08:49.395Z,99.90
2019-03-11T03:11:21.867Z,99.90
2019-03-11T03:13:56.273Z,99.90
2019-03-11T03:16:30.115Z,99.90
2019-03-11T03:19:02.507Z,99.90
2019-03-11T03:21:34.509Z,99.90
2019-03-11T03:24:07.631Z,99.90
2019-03-11T03:26:41.097Z,99.90
2019-03-11T03:29:15.302Z,99.90
2019-03-11T03:31:49.538Z,99.90
2019-03-11T03:34:23.046Z,99.90
2019-03-11T03:36:56.242Z,99.90
2019-03-11T03:39:29.437Z,99.90
2019-03-11T03:42:05.037Z,99.90
2019-03-11T03:44:41.590Z,99.90
2019-03-11T03:47:13.395Z,99.90
2019-03-11T03:49:45.595Z,99.90
2019-03-11T03:52:18.073Z,99.90
2019-03-11T03:54:52.313Z,99.90
2019-03-11T03:57:25.403Z,99.90
2019-03-11T03:59:58.772Z,99.90
2019-03-11T04:02:30.942Z,99.90
2019-03-11T04:05:03.280Z,99.90
2019-03-11T04:07:36.752Z,99.90
2019-03-11T04:10:09.917Z,99.90
2019-03-11T04:12:42.021Z,99.90
2019-03-11T04:15:15.257Z,99.90
2019-03-11T04:17:47.432Z,99.90
2019-03-11T04:20:20.414Z,99.90
2019-03-11T04:22:52.563Z,99.90
2019-03-11T04:25:24.642Z,99.90
2019-03-11T04:27:57.083Z,99.90
2019-03-11T04:30:29.781Z,99.90
2019-03-11T04:33:03.891Z,99.90
2019-03-11T04:35:37.172Z,99.90
2019-03-11T04:38:09.241Z,99.90
2019-03-11T04:40:41.693Z,99.90
2019-03-11T04:43:14.138Z,99.90
2019-03-11T04:45:46.214Z,99.90
2019-03-11T04:48:24.176Z,99.90
2019-03-11T04:50:56.823Z,99.90
2019-03-11T04:53:28.746Z,99.90
2019-03-11T04:56:00.882Z,99.90
2019-03-11T04:58:34.254Z,99.90
2019-03-11T05:01:06.395Z,99.90
2019-03-11T05:03:38.480Z,99.90
2019-03-11T05:06:11.354Z,99.90
2019-03-11T05:08:44.012Z,99.90
2019-03-11T05:11:17.008Z,99.90
2019-03-11T05:13:50.354Z,99.90
2019-03-11T05:16:22.499Z,99.90
2019-03-11T05:18:54.719Z,99.90
2019-03-11T05:21:26.901Z,99.90
2019-03-11T05:23:59.590Z,99.90
2019-03-11T05:26:32.062Z,99.90
2019-03-11T05:29:04.264Z,99.90
2019-03-11T05:31:36.367Z,99.90
2019-03-11T05:34:09.353Z,99.90
2019-03-11T05:36:41.652Z,99.90
2019-03-11T05:39:15.649Z,99.90
2019-03-11T05:41:48.870Z,99.90
2019-03-11T05:44:21.982Z,99.90
2019-03-11T05:46:54.299Z,99.90
2019-03-11T05:49:27.435Z,99.90
2019-03-11T05:51:59.594Z,99.90
2019-03-11T05:54:31.683Z,99.90
2019-03-11T05:57:03.710Z,99.90
2019-03-11T05:59:36.428Z,99.90
2019-03-11T06:02:09.636Z,99.90
2019-03-11T06:04:41.786Z,99.90
2019-03-11T06:07:15.079Z,99.90
2019-03-11T06:09:47.218Z,99.90
2019-03-11T06:12:19.343Z,99.90
2019-03-11T06:14:52.476Z,99.90
2019-03-11T06:17:25.426Z,99.90
2019-03-11T06:20:16.951Z,99.90
2019-03-11T06:22:50.135Z,99.90
2019-03-11T06:25:22.308Z,99.90
2019-03-11T06:27:55.350Z,99.90
2019-03-11T06:30:29.181Z,99.90
2019-03-11T06:33:01.103Z,99.90
2019-03-11T06:35:34.572Z,99.90
2019-03-11T06:38:06.545Z,99.90
2019-03-11T06:40:40.523Z,99.90
2019-03-11T06:43:12.471Z,99.90
2019-03-11T06:45:44.591Z,99.90
2019-03-11T06:48:26.524Z,99.90
2019-03-11T06:50:58.519Z,99.90
2019-03-11T06:53:30.691Z,99.90
2019-03-11T06:56:03.264Z,99.90
2019-03-11T06:58:36.887Z,99.90
2019-03-11T07:01:08.974Z,99.90
2019-03-11T07:03:41.965Z,99.90
2019-03-11T07:06:15.426Z,99.90
2019-03-11T07:08:49.845Z,99.90
2019-03-11T07:11:22.451Z,99.90
2019-03-11T07:13:56.360Z,99.90
2019-03-11T07:16:30.879Z,99.90
2019-03-11T07:19:03.131Z,99.90
2019-03-11T07:21:35.924Z,99.90
2019-03-11T07:24:07.851Z,99.90
2019-03-11T07:26:40.350Z,99.90
2019-03-11T07:29:13.758Z,99.90
2019-03-11T07:31:46.455Z,99.90
2019-03-11T07:34:18.467Z,99.90
2019-03-11T07:36:50.460Z,99.90
2019-03-11T07:39:22.554Z,99.90
2019-03-11T07:41:54.650Z,99.90
2019-03-11T07:44:28.045Z,99.90
2019-03-11T07:47:00.087Z,99.90
2019-03-11T07:49:33.566Z,99.90
2019-03-11T07:52:05.889Z,99.90
2019-03-11T07:54:38.920Z,99.90
2019-03-11T07:57:11.984Z,99.90
2019-03-11T07:59:44.189Z,99.90
2019-03-11T08:02:18.293Z,99.90
2019-03-11T08:04:51.682Z,99.90
2019-03-11T08:07:23.742Z,99.90
2019-03-11T08:09:56.797Z,99.90
2019-03-11T08:12:29.013Z,99.90
2019-03-11T08:15:04.046Z,99.90
2019-03-11T08:17:37.297Z,99.90
2019-03-11T08:20:10.559Z,99.90
2019-03-11T08:22:42.784Z,99.90
2019-03-11T08:25:16.377Z,99.90
2019-03-11T08:27:49.401Z,99.90
2019-03-11T08:30:23.828Z,99.90
2019-03-11T08:32:56.063Z,99.90
2019-03-11T08:35:29.678Z,99.90
2019-03-11T08:38:05.197Z,99.90
2019-03-11T08:40:37.739Z,99.90
2019-03-11T08:43:11.954Z,99.90
2019-03-11T08:45:45.058Z,99.90
2019-03-11T08:48:18.581Z,99.90
2019-03-11T08:50:51.321Z,99.90
2019-03-11T08:53:23.462Z,99.90
2019-03-11T08:55:55.989Z,99.90
2019-03-11T08:58:28.546Z,99.90
2019-03-11T09:01:02.147Z,99.90
2019-03-11T09:03:36.163Z,99.90
2019-03-11T09:06:08.296Z,99.90
2019-03-11T09:08:42.000Z,99.90
2019-03-11T09:11:16.107Z,99.90
2019-03-11T09:13:48.155Z,99.90
2019-03-11T09:16:21.722Z,99.90
2019-03-11T09:18:53.941Z,99.90
2019-03-11T09:21:26.333Z,99.90
2019-03-11T09:23:59.216Z,99.90
2019-03-11T09:26:32.352Z,99.90
2019-03-11T09:29:06.240Z,99.90
2019-03-11T09:31:39.659Z,99.90
2019-03-11T09:34:11.854Z,99.90
2019-03-11T09:36:44.303Z,99.90
2019-03-11T09:39:16.650Z,99.90
2019-03-11T09:41:48.721Z,99.90
2019-03-11T09:44:22.421Z,99.90
2019-03-11T09:46:56.636Z,99.50
2019-03-11T09:49:29.157Z,97.00
2019-03-11T09:52:02.090Z,97.00
2019-03-11T09:54:35.976Z,94.60
2019-03-11T09:57:08.798Z,93.90
2019-03-11T09:59:40.696Z,93.10
2019-03-11T10:02:13.223Z,93.20
2019-03-11T10:04:45.111Z,94.10
2019-03-11T10:07:17.987Z,95.60
2019-03-11T10:09:50.411Z,92.30
2019-03-11T10:12:22.299Z,93.50
2019-03-11T10:14:54.690Z,93.20
2019-03-11T10:17:26.658Z,92.40
2019-03-11T10:19:59.302Z,90.30
2019-03-11T10:22:31.636Z,87.90
2019-03-11T10:25:04.597Z,90.20
2019-03-11T10:27:36.466Z,91.20
2019-03-11T10:30:10.302Z,91.20
2019-03-11T10:32:43.539Z,92.10
2019-03-11T10:35:30.815Z,96.90
2019-03-11T10:37:49.982Z,99.90
2019-03-11T10:40:22.488Z,99.90
2019-03-11T10:42:55.090Z,99.90
2019-03-11T10:45:31.768Z,99.90
2019-03-11T10:48:00.997Z,99.90
2019-03-11T10:50:32.897Z,99.90
2019-03-11T10:53:04.816Z,99.30
2019-03-11T10:55:37.110Z,96.50
2019-03-11T10:58:10.160Z,96.30
2019-03-11T11:00:42.569Z,94.20
2019-03-11T11:03:14.402Z,92.40
2019-03-11T11:05:47.350Z,92.00
2019-03-11T11:08:20.263Z,88.70
2019-03-11T11:10:52.131Z,84.00
2019-03-11T11:13:24.554Z,78.40
2019-03-11T11:15:56.452Z,72.00
2019-03-11T11:18:29.490Z,74.00
2019-03-11T11:21:01.474Z,67.30
2019-03-11T11:23:33.902Z,67.20
2019-03-11T11:26:06.381Z,67.30
2019-03-11T11:28:38.264Z,64.30
2019-03-11T11:31:11.163Z,63.90
2019-03-11T11:33:43.084Z,64.00
2019-03-11T11:36:15.988Z,65.00
2019-03-11T11:38:48.342Z,70.90
2019-03-11T11:41:21.527Z,78.60
2019-03-11T11:43:54.309Z,97.50
2019-03-11T11:46:26.779Z,99.90
2019-03-11T11:48:59.129Z,99.90
2019-03-11T11:51:31.431Z,99.90
2019-03-11T11:54:03.843Z,99.90
2019-03-11T11:56:36.177Z,99.90
2019-03-11T11:59:08.570Z,99.90
2019-03-11T12:01:40.545Z,99.90
2019-03-11T12:04:14.000Z,99.50
2019-03-11T12:06:45.949Z,95.10
2019-03-11T12:09:17.826Z,96.10
2019-03-11T12:11:50.307Z,95.10
2019-03-11T12:14:22.217Z,92.30
2019-03-11T12:16:54.157Z,92.60
2019-03-11T12:19:27.096Z,88.30
2019-03-11T12:21:59.315Z,79.30
2019-03-11T12:24:31.390Z,77.60
2019-03-11T12:27:03.245Z,76.90
2019-03-11T12:29:35.699Z,74.90
2019-03-11T12:32:07.780Z,74.60
2019-03-11T12:34:39.677Z,73.30
2019-03-11T12:37:12.360Z,72.00
2019-03-11T12:39:44.798Z,76.60
2019-03-11T12:42:17.128Z,84.30
2019-03-11T12:44:49.532Z,92.70
2019-03-11T12:47:22.474Z,94.20
2019-03-11T12:49:54.316Z,93.60
2019-03-11T12:52:26.243Z,93.80
2019-03-11T12:54:58.475Z,93.30
2019-03-11T12:57:30.878Z,89.10
2019-03-11T13:00:03.291Z,83.00
2019-03-11T13:02:36.315Z,81.80
2019-03-11T13:05:09.235Z,77.10
2019-03-11T13:07:41.118Z,76.00
2019-03-11T13:10:15.261Z,76.20
2019-03-11T13:12:47.708Z,74.30
2019-03-11T13:15:20.436Z,76.00
2019-03-11T13:17:52.472Z,79.50
2019-03-11T13:20:30.752Z,82.30
2019-03-11T13:23:02.766Z,83.80
2019-03-11T13:25:35.287Z,85.50
2019-03-11T13:28:07.196Z,84.70
2019-03-11T13:30:40.140Z,84.40
2019-03-11T13:33:12.451Z,81.50
2019-03-11T13:35:44.850Z,80.20
2019-03-11T13:38:17.247Z,78.60
2019-03-11T13:40:49.614Z,79.30
2019-03-11T13:43:21.910Z,83.60
2019-03-11T13:45:53.935Z,93.00
2019-03-11T13:48:27.409Z,92.70
2019-03-11T13:50:59.746Z,94.30
2019-03-11T13:53:31.668Z,99.90
2019-03-11T13:56:04.702Z,99.90
2019-03-11T13:58:36.896Z,99.90
2019-03-11T14:01:09.051Z,99.90
2019-03-11T14:03:41.787Z,99.90
2019-03-11T14:06:14.687Z,99.90
2019-03-11T14:08:47.112Z,99.90
2019-03-11T14:11:19.050Z,99.90
2019-03-11T14:13:51.607Z,99.90
2019-03-11T14:16:23.496Z,99.90
2019-03-11T14:18:55.364Z,99.90
2019-03-11T14:21:27.658Z,99.90
2019-03-11T14:23:59.616Z,99.90
2019-03-11T14:26:31.536Z,99.90
2019-03-11T14:29:04.550Z,99.90
2019-03-11T14:31:37.464Z,99.90
2019-03-11T14:34:10.000Z,99.90
2019-03-11T14:36:42.924Z,99.90
2019-03-11T14:39:14.754Z,99.90
2019-03-11T14:41:47.194Z,99.90
2019-03-11T14:44:19.091Z,99.90
2019-03-11T14:46:51.626Z,99.90
2019-03-11T14:49:23.675Z,99.90
2019-03-11T14:51:55.608Z,99.90
2019-03-11T14:54:27.867Z,99.90
2019-03-11T14:57:00.732Z,99.90
2019-03-11T14:59:32.669Z,99.90
2019-03-11T15:02:06.609Z,99.90
2019-03-11T15:04:39.571Z,99.90
2019-03-11T15:07:12.528Z,99.90
2019-03-11T15:09:51.341Z,99.90
2019-03-11T15:12:18.796Z,99.90
2019-03-11T15:14:51.989Z,99.90
2019-03-11T15:17:23.917Z,99.90
2019-03-11T15:19:56.357Z,99.90
2019-03-11T15:22:28.282Z,99.90
2019-03-11T15:25:00.613Z,99.90
2019-03-11T15:27:32.516Z,99.90
2019-03-11T15:30:04.886Z,99.90
2019-03-11T15:32:37.640Z,99.90
2019-03-11T15:35:10.606Z,99.90
2019-03-11T15:37:42.418Z,99.90
2019-03-11T15:40:14.354Z,99.90
2019-03-11T15:42:46.372Z,99.90
2019-03-11T15:45:18.978Z,99.90
2019-03-11T15:47:51.952Z,99.90
2019-03-11T15:50:26.297Z,99.90
2019-03-11T15:52:59.252Z,99.90
2019-03-11T15:55:33.089Z,99.90
2019-03-11T15:58:05.709Z,99.90
2019-03-11T16:00:37.727Z,99.90
2019-03-11T16:03:12.798Z,99.90
2019-03-11T16:05:45.590Z,99.90
2019-03-11T16:08:19.459Z,99.90
2019-03-11T16:10:51.712Z,99.90
2019-03-11T16:13:24.421Z,99.90
2019-03-11T16:15:56.889Z,99.90
2019-03-11T16:18:29.250Z,99.90
2019-03-11T16:21:01.244Z,99.90
2019-03-11T16:23:33.403Z,99.90
2019-03-11T16:26:06.415Z,99.90
2019-03-11T16:28:47.681Z,99.90
2019-03-11T16:31:14.693Z,99.90
2019-03-11T16:33:48.397Z,99.90
2019-03-11T16:36:20.910Z,99.90
2019-03-11T16:38:54.385Z,99.90
2019-03-11T16:41:26.672Z,99.90
2019-03-11T16:43:59.368Z,99.90
2019-03-11T16:46:33.670Z,99.90
2019-03-11T16:49:06.467Z,99.90
2019-03-11T16:51:41.386Z,99.90
2019-03-11T16:54:15.137Z,99.90
2019-03-11T16:56:48.188Z,99.90
2019-03-11T16:59:21.906Z,99.90
2019-03-11T17:01:55.592Z,99.90
2019-03-11T17:04:27.762Z,99.90
2019-03-11T17:07:00.991Z,99.90
2019-03-11T17:09:36.054Z,99.90
2019-03-11T17:12:08.759Z,99.90
2019-03-11T17:14:40.863Z,99.90
2019-03-11T17:17:13.883Z,99.90
2019-03-11T17:19:47.193Z,99.90
2019-03-11T17:22:19.391Z,99.90
2019-03-11T17:24:53.945Z,99.90
2019-03-11T17:27:27.750Z,99.90
2019-03-11T17:30:01.442Z,99.90
2019-03-11T17:32:33.916Z,99.90
2019-03-11T17:35:06.672Z,99.90
2019-03-11T17:37:39.988Z,99.90
2019-03-11T17:40:13.879Z,99.90
2019-03-11T17:42:47.078Z,99.90
2019-03-11T17:45:20.960Z,99.90
2019-03-11T17:47:53.187Z,99.90
2019-03-11T17:50:25.462Z,99.90
2019-03-11T17:52:58.311Z,99.90
2019-03-11T17:55:32.113Z,99.90
2019-03-11T17:58:04.684Z,99.90
2019-03-11T18:00:38.893Z,99.90
2019-03-11T18:03:11.105Z,99.90
2019-03-11T18:05:43.577Z,99.90
2019-03-11T18:08:17.807Z,99.90
2019-03-11T18:10:51.251Z,99.90
2019-03-11T18:13:24.206Z,99.90
2019-03-11T18:15:56.238Z,99.90
2019-03-11T18:18:33.598Z,99.90
2019-03-11T18:21:07.018Z,99.90
2019-03-11T18:23:40.178Z,99.90
2019-03-11T18:26:13.286Z,99.90
2019-03-11T18:28:45.207Z,99.90
2019-03-11T18:31:18.414Z,99.90
2019-03-11T18:33:51.174Z,99.90
2019-03-11T18:36:26.119Z,99.90
2019-03-11T18:38:58.506Z,99.90
2019-03-11T18:41:30.497Z,99.90
2019-03-11T18:44:04.048Z,99.90
2019-03-11T18:46:37.414Z,99.90
2019-03-11T18:49:12.812Z,99.90
2019-03-11T18:51:45.009Z,99.90
2019-03-11T18:54:18.448Z,99.90
2019-03-11T18:56:51.348Z,99.90
2019-03-11T18:59:23.920Z,99.90
2019-03-11T19:01:56.392Z,99.90
2019-03-11T19:04:31.599Z,99.90
2019-03-11T19:07:03.525Z,99.90
2019-03-11T19:09:35.756Z,99.90
2019-03-11T19:12:09.017Z,99.90
2019-03-11T19:14:41.562Z,99.90
2019-03-11T19:17:14.856Z,99.90
2019-03-11T19:19:46.988Z,99.90
2019-03-11T19:22:19.174Z,99.90
2019-03-11T19:24:52.053Z,99.90
2019-03-11T19:27:25.168Z,99.90
2019-03-11T19:29:58.675Z,99.90
2019-03-11T19:32:31.150Z,99.90
2019-03-11T19:35:05.160Z,99.90
2019-03-11T19:37:39.993Z,99.90
2019-03-11T19:40:14.040Z,99.90
2019-03-11T19:42:47.546Z,99.90
2019-03-11T19:45:22.050Z,99.90
2019-03-11T19:47:55.281Z,99.90
2019-03-11T19:50:29.124Z,99.90
2019-03-11T19:53:03.106Z,99.90
2019-03-11T19:55:37.703Z,99.90
2019-03-11T19:58:10.156Z,99.90
2019-03-11T20:00:43.831Z,99.90
2019-03-11T20:03:26.502Z,99.90
2019-03-11T20:05:50.626Z,99.90
2019-03-11T20:08:23.606Z,99.90
2019-03-11T20:10:57.846Z,99.90
2019-03-11T20:13:29.890Z,99.90
2019-03-11T20:16:02.165Z,99.90
2019-03-11T20:18:34.267Z,99.90
2019-03-11T20:21:10.167Z,99.90
2019-03-11T20:23:43.021Z,99.90
2019-03-11T20:26:18.399Z,99.90
2019-03-11T20:28:50.507Z,99.90
2019-03-11T20:31:24.083Z,99.90
2019-03-11T20:33:57.144Z,99.90
2019-03-11T20:36:29.388Z,99.90
2019-03-11T20:39:02.961Z,99.90
2019-03-11T20:41:37.071Z,99.90
2019-03-11T20:44:11.077Z,99.90
2019-03-11T20:46:43.062Z,99.90
2019-03-11T20:49:16.714Z,99.90
2019-03-11T20:51:49.326Z,99.90
2019-03-11T20:54:23.406Z,99.90
2019-03-11T20:56:56.651Z,99.90
2019-03-11T20:59:29.412Z,99.90
2019-03-11T21:02:01.427Z,99.90
2019-03-11T21:04:34.425Z,99.90
2019-03-11T21:07:06.741Z,99.90
2019-03-11T21:09:39.220Z,99.90
2019-03-11T21:12:12.720Z,99.90
2019-03-11T21:14:45.334Z,99.90
2019-03-11T21:17:25.575Z,99.90
2019-03-11T21:19:53.566Z,99.90
2019-03-11T21:22:25.641Z,99.90
2019-03-11T21:24:59.849Z,99.90
2019-03-11T21:27:31.325Z,99.90
2019-03-11T21:30:04.759Z,99.90
2019-03-11T21:32:38.420Z,99.90
2019-03-11T21:35:10.606Z,99.90
2019-03-11T21:37:43.704Z,99.90
2019-03-11T21:40:17.039Z,99.90
2019-03-11T21:42:49.673Z,99.90
2019-03-11T21:45:33.443Z,99.90
2019-03-11T21:47:57.003Z,99.90
2019-03-11T21:50:29.116Z,99.90
2019-03-11T21:53:01.547Z,99.90
2019-03-11T21:55:34.390Z,99.90
2019-03-11T21:58:13.163Z,99.90
2019-03-11T22:00:41.358Z,99.90
2019-03-11T22:03:21.927Z,99.90
2019-03-11T22:05:53.754Z,99.90
2019-03-11T22:08:25.595Z,99.90
2019-03-11T22:10:57.610Z,99.90
2019-03-11T22:13:29.960Z,99.90
2019-03-11T22:16:02.834Z,99.90
2019-03-11T22:18:35.143Z,99.90
2019-03-11T22:21:07.418Z,99.90
2019-03-11T22:23:42.104Z,99.90
2019-03-11T22:26:13.464Z,99.90
2019-03-11T22:28:45.947Z,99.90
2019-03-11T22:31:18.264Z,99.90
2019-03-11T22:33:50.244Z,99.90
2019-03-11T22:36:22.175Z,99.90
2019-03-11T22:38:54.153Z,99.90
2019-03-11T22:41:26.021Z,99.90
2019-03-11T22:43:58.129Z,99.90
2019-03-11T22:46:30.957Z,99.90
2019-03-11T22:49:02.962Z,99.90
2019-03-11T22:51:35.305Z,99.90
2019-03-11T22:54:09.063Z,99.90
2019-03-11T22:56:41.011Z,99.90
2019-03-11T22:59:12.943Z,99.90
2019-03-11T23:01:45.405Z,99.90
2019-03-11T23:04:17.291Z,99.90
2019-03-11T23:06:49.693Z,99.90
2019-03-11T23:09:21.802Z,99.90
2019-03-11T23:11:53.675Z,99.90
2019-03-11T23:14:25.530Z,99.90
2019-03-11T23:16:57.900Z,99.90
2019-03-11T23:19:29.823Z,99.90
2019-03-11T23:22:02.294Z,99.90
2019-03-11T23:24:34.266Z,99.90
2019-03-11T23:27:06.699Z,99.90
2019-03-11T23:29:39.192Z,99.90
2019-03-11T23:32:11.169Z,99.90
2019-03-11T23:34:43.228Z,99.90
2019-03-11T23:37:18.715Z,99.90
2019-03-11T23:39:50.902Z,99.90
2019-03-11T23:42:23.213Z,99.90
2019-03-11T23:44:55.585Z,99.90
2019-03-11T23:47:27.423Z,99.90
2019-03-11T23:49:59.348Z,99.90
2019-03-11T23:52:31.204Z,99.90
2019-03-11T23:55:03.143Z,99.90
2019-03-11T23:57:35.419Z,99.90
